createdAt,value
2023-09-27T00:00:13.109Z,6.77
2023-09-27T00:02:41.798Z,8.63
2023-09-27T00:05:12.664Z,8.60
2023-09-27T00:07:42.437Z,12.70
2023-09-27T00:10:12.542Z,11.27
2023-09-27T00:12:42.686Z,9.57
2023-09-27T00:15:13.138Z,8.30
2023-09-27T00:17:42.648Z,8.77
2023-09-27T00:20:14.649Z,8.10
2023-09-27T00:22:42.764Z,8.97
2023-09-27T00:25:12.762Z,11.77
2023-09-27T00:27:43.063Z,10.13
2023-09-27T00:30:15.173Z,7.73
2023-09-27T00:32:43.562Z,8.77
2023-09-27T00:35:15.822Z,9.20
2023-09-27T00:37:44.496Z,8.93
2023-09-27T00:40:15.833Z,8.63
2023-09-27T00:42:45.356Z,6.80
2023-09-27T00:45:13.380Z,11.20
2023-09-27T00:47:43.201Z,8.87
2023-09-27T00:50:11.420Z,12.47
2023-09-27T00:52:42.093Z,13.63
2023-09-27T00:55:14.263Z,9.57
2023-09-27T00:57:42.342Z,9.60
2023-09-27T01:00:13.496Z,11.77
2023-09-27T01:02:42.377Z,9.10
2023-09-27T01:05:11.572Z,8.77
2023-09-27T01:07:41.739Z,10.50
2023-09-27T01:10:11.261Z,8.90
2023-09-27T01:12:39.854Z,11.50
2023-09-27T01:15:09.189Z,8.40
2023-09-27T01:17:38.673Z,10.47
2023-09-27T01:20:08.569Z,10.93
2023-09-27T01:22:36.575Z,11.43
2023-09-27T01:25:13.636Z,14.87
2023-09-27T01:27:42.953Z,9.17
2023-09-27T01:30:11.580Z,11.37
2023-09-27T01:32:39.803Z,10.07
2023-09-27T01:35:08.793Z,9.13
2023-09-27T01:37:36.876Z,8.93
2023-09-27T01:40:10.459Z,11.77
2023-09-27T01:42:43.752Z,14.30
2023-09-27T01:45:13.863Z,9.83
2023-09-27T01:47:42.576Z,13.77
2023-09-27T01:50:11.494Z,10.80
2023-09-27T01:52:39.563Z,10.20
2023-09-27T01:55:10.324Z,7.90
2023-09-27T01:57:38.349Z,6.97
2023-09-27T02:00:12.348Z,10.47
2023-09-27T02:02:40.839Z,9.80
2023-09-27T02:05:10.630Z,8.37
2023-09-27T02:07:40.646Z,10.07
2023-09-27T02:10:11.303Z,8.80
2023-09-27T02:12:39.881Z,10.70
2023-09-27T02:15:09.598Z,10.20
2023-09-27T02:17:37.897Z,11.40
2023-09-27T02:20:07.881Z,13.97
2023-09-27T02:22:36.181Z,8.00
2023-09-27T02:25:06.322Z,12.90
2023-09-27T02:27:36.351Z,13.53
2023-09-27T02:30:07.128Z,16.40
2023-09-27T02:32:35.310Z,11.10
2023-09-27T02:35:03.785Z,16.53
2023-09-27T02:37:32.006Z,11.77
2023-09-27T02:40:00.029Z,15.77
2023-09-27T02:42:28.060Z,15.53
2023-09-27T02:44:59.541Z,17.97
2023-09-27T02:47:28.008Z,11.03
2023-09-27T02:49:56.130Z,14.20
2023-09-27T02:52:24.211Z,8.13
2023-09-27T02:54:52.281Z,14.40
2023-09-27T02:57:21.159Z,10.20
2023-09-27T02:59:49.215Z,10.37
2023-09-27T03:02:18.667Z,12.13
2023-09-27T03:04:48.612Z,10.20
2023-09-27T03:07:16.965Z,13.27
2023-09-27T03:09:45.070Z,13.27
2023-09-27T03:12:13.327Z,12.93
2023-09-27T03:14:41.273Z,10.67
2023-09-27T03:17:09.538Z,18.47
2023-09-27T03:19:38.988Z,14.03
2023-09-27T03:22:07.029Z,17.80
2023-09-27T03:24:35.495Z,18.37
2023-09-27T03:27:05.675Z,17.93
2023-09-27T03:29:33.836Z,18.60
2023-09-27T03:32:02.005Z,18.03
2023-09-27T03:34:30.025Z,13.83
2023-09-27T03:37:00.497Z,21.37
2023-09-27T03:39:30.150Z,25.10
2023-09-27T03:41:58.340Z,25.63
2023-09-27T03:44:26.682Z,22.07
2023-09-27T03:46:54.940Z,12.10
2023-09-27T03:49:23.038Z,18.40
2023-09-27T03:51:51.084Z,18.10
2023-09-27T03:54:20.548Z,25.40
2023-09-27T03:56:49.066Z,22.50
2023-09-27T03:59:17.126Z,19.60
2023-09-27T04:01:45.146Z,18.80
2023-09-27T04:04:13.262Z,19.53
2023-09-27T04:06:41.272Z,22.63
2023-09-27T04:09:10.830Z,22.83
2023-09-27T04:11:40.831Z,23.40
2023-09-27T04:14:10.232Z,17.83
2023-09-27T04:16:38.229Z,24.83
2023-09-27T04:19:06.440Z,16.20
2023-09-27T04:21:34.450Z,24.20
2023-09-27T04:24:04.529Z,29.43
2023-09-27T04:26:32.787Z,26.27
2023-09-27T04:29:02.314Z,36.13
2023-09-27T04:31:30.545Z,27.30
2023-09-27T04:33:58.810Z,23.93
2023-09-27T04:36:27.557Z,24.77
2023-09-27T04:38:55.566Z,22.57
2023-09-27T04:41:23.658Z,22.40
2023-09-27T04:43:51.746Z,19.40
2023-09-27T04:46:21.181Z,25.30
2023-09-27T04:48:49.248Z,23.20
2023-09-27T04:51:17.232Z,24.13
2023-09-27T04:53:45.238Z,28.47
2023-09-27T04:56:13.462Z,27.73
2023-09-27T04:58:42.389Z,24.23
2023-09-27T05:01:12.258Z,24.17
2023-09-27T05:03:42.255Z,24.73
2023-09-27T05:06:10.335Z,21.17
2023-09-27T05:08:38.421Z,20.80
2023-09-27T05:11:06.624Z,24.17
2023-09-27T05:13:34.748Z,27.47
2023-09-27T05:16:02.858Z,29.90
2023-09-27T05:18:31.239Z,21.50
2023-09-27T05:21:06.182Z,22.75
2023-09-27T05:23:34.261Z,19.95
2023-09-27T05:26:02.382Z,20.60
2023-09-27T05:28:31.004Z,21.48
2023-09-27T05:30:59.117Z,16.77
2023-09-27T05:33:27.208Z,12.10
2023-09-27T05:35:56.044Z,13.93
2023-09-27T05:38:26.016Z,11.32
2023-09-27T05:40:54.150Z,17.17
2023-09-27T05:43:22.177Z,15.43
2023-09-27T05:45:50.221Z,16.70
2023-09-27T05:48:18.330Z,13.23
2023-09-27T05:50:48.821Z,10.98
2023-09-27T05:53:18.801Z,10.27
2023-09-27T05:55:49.486Z,13.55
2023-09-27T05:58:20.219Z,9.98
2023-09-27T06:00:49.360Z,11.43
2023-09-27T06:03:16.581Z,15.10
2023-09-27T06:05:44.845Z,12.50
2023-09-27T06:08:12.908Z,13.45
2023-09-27T06:10:42.042Z,9.15
2023-09-27T06:13:12.068Z,12.13
2023-09-27T06:15:40.952Z,15.85
2023-09-27T06:18:09.000Z,13.93
2023-09-27T06:20:40.259Z,12.20
2023-09-27T06:23:10.827Z,15.70
2023-09-27T06:25:40.783Z,10.75
2023-09-27T06:28:08.877Z,13.05
2023-09-27T06:30:38.408Z,11.90
2023-09-27T06:33:06.632Z,12.75
2023-09-27T06:35:34.686Z,11.27
2023-09-27T06:38:02.933Z,13.23
2023-09-27T06:40:31.863Z,13.70
2023-09-27T06:43:00.622Z,11.75
2023-09-27T06:45:29.939Z,8.38
2023-09-27T06:48:00.185Z,9.50
2023-09-27T06:50:28.916Z,11.82
2023-09-27T06:53:15.435Z,8.63
2023-09-27T06:55:49.105Z,10.60
2023-09-27T06:58:24.286Z,6.72
2023-09-27T07:00:53.388Z,9.75
2023-09-27T07:03:26.885Z,8.57
2023-09-27T07:05:55.298Z,10.45
2023-09-27T07:08:23.797Z,8.60
2023-09-27T07:10:52.199Z,10.45
2023-09-27T07:13:20.492Z,9.88
2023-09-27T07:15:49.252Z,10.40
2023-09-27T07:18:17.542Z,9.65
2023-09-27T07:20:47.452Z,9.27
2023-09-27T07:23:16.797Z,9.15
2023-09-27T07:25:45.741Z,7.70
2023-09-27T07:28:13.924Z,11.35
2023-09-27T07:30:42.198Z,10.93
2023-09-27T07:33:12.966Z,10.20
2023-09-27T07:35:43.794Z,9.35
2023-09-27T07:38:13.802Z,10.40
2023-09-27T07:40:41.942Z,9.63
2023-09-27T07:43:09.950Z,10.95
2023-09-27T07:45:43.266Z,12.05
2023-09-27T07:48:11.697Z,10.93
2023-09-27T07:50:43.562Z,8.38
2023-09-27T07:53:13.158Z,11.45
2023-09-27T07:55:47.759Z,10.40
2023-09-27T07:58:15.935Z,14.85
2023-09-27T08:00:44.659Z,8.27
2023-09-27T08:03:15.275Z,10.25
2023-09-27T08:05:46.968Z,10.20
2023-09-27T08:08:16.785Z,10.20
2023-09-27T08:10:46.840Z,11.40
2023-09-27T08:13:16.564Z,11.00
2023-09-27T08:15:45.760Z,12.57
2023-09-27T08:18:16.064Z,11.02
2023-09-27T08:20:44.206Z,9.57
2023-09-27T08:23:12.548Z,8.40
2023-09-27T08:25:42.120Z,8.50
2023-09-27T08:28:11.770Z,7.03
2023-09-27T08:30:41.840Z,13.10
2023-09-27T08:33:10.358Z,9.55
2023-09-27T08:35:38.812Z,8.15
2023-09-27T08:38:07.443Z,13.50
2023-09-27T08:40:35.628Z,13.15
2023-09-27T08:43:06.433Z,11.52
2023-09-27T08:45:38.456Z,9.68
2023-09-27T08:48:08.864Z,9.48
2023-09-27T08:50:37.932Z,7.88
2023-09-27T08:53:06.569Z,9.15
2023-09-27T08:55:37.327Z,15.48
2023-09-27T08:58:09.653Z,13.65
2023-09-27T09:00:38.146Z,12.90
2023-09-27T09:03:06.754Z,12.00
2023-09-27T09:05:36.910Z,17.55
2023-09-27T09:08:06.734Z,8.80
2023-09-27T09:10:34.881Z,15.20
2023-09-27T09:13:04.803Z,6.13
2023-09-27T09:15:38.027Z,7.47
2023-09-27T09:18:10.399Z,9.05
2023-09-27T09:20:51.919Z,6.75
2023-09-27T09:23:31.406Z,9.57
2023-09-27T09:26:00.399Z,11.82
2023-09-27T09:28:28.919Z,5.75
2023-09-27T09:30:58.325Z,15.20
2023-09-27T09:33:29.618Z,7.63
2023-09-27T09:35:58.785Z,14.70
2023-09-27T09:38:31.822Z,8.18
2023-09-27T09:41:02.125Z,8.20
2023-09-27T09:43:31.598Z,9.50
2023-09-27T09:46:01.953Z,10.18
2023-09-27T09:48:31.206Z,10.82
2023-09-27T09:51:07.433Z,10.52
2023-09-27T09:53:40.802Z,15.93
2023-09-27T09:56:30.658Z,11.27
2023-09-27T09:59:04.585Z,8.60
2023-09-27T10:01:38.314Z,8.23
2023-09-27T10:04:07.936Z,8.27
2023-09-27T10:06:48.796Z,6.97
2023-09-27T10:09:18.118Z,11.50
2023-09-27T10:11:48.302Z,7.18
2023-09-27T10:14:19.270Z,9.45
2023-09-27T10:16:51.443Z,11.88
2023-09-27T10:19:30.139Z,10.80
2023-09-27T10:22:15.303Z,7.28
2023-09-27T10:24:44.409Z,8.18
2023-09-27T10:27:12.626Z,7.43
2023-09-27T10:29:59.469Z,8.73
2023-09-27T10:32:29.525Z,8.15
2023-09-27T10:34:57.813Z,8.15
2023-09-27T10:38:01.016Z,8.20
2023-09-27T10:40:29.384Z,12.00
2023-09-27T10:42:57.796Z,8.05
2023-09-27T10:45:26.025Z,13.45
2023-09-27T10:47:56.451Z,11.82
2023-09-27T10:50:32.160Z,7.35
2023-09-27T10:53:01.535Z,9.13
2023-09-27T10:55:40.081Z,8.63
2023-09-27T10:58:08.448Z,13.43
2023-09-27T11:00:36.586Z,6.97
2023-09-27T11:03:19.429Z,12.30
2023-09-27T11:05:47.713Z,7.75
2023-09-27T11:08:23.215Z,10.00
2023-09-27T11:10:53.806Z,8.50
2023-09-27T11:13:22.570Z,9.05
2023-09-27T11:15:52.044Z,9.95
2023-09-27T11:18:22.145Z,7.80
2023-09-27T11:20:50.500Z,13.73
2023-09-27T11:23:21.503Z,6.25
2023-09-27T11:25:50.589Z,12.57
2023-09-27T11:28:19.431Z,11.75
2023-09-27T11:30:47.485Z,11.35
2023-09-27T11:33:18.153Z,10.57
2023-09-27T11:35:52.024Z,11.93
2023-09-27T11:38:20.169Z,9.88
2023-09-27T11:40:49.860Z,10.30
2023-09-27T11:43:18.829Z,10.05
2023-09-27T11:45:48.881Z,9.35
2023-09-27T11:48:18.695Z,9.38
2023-09-27T11:50:47.636Z,10.90
2023-09-27T11:53:17.469Z,10.57
2023-09-27T11:55:48.448Z,8.98
2023-09-27T11:58:16.610Z,12.98
2023-09-27T12:00:46.491Z,9.18
2023-09-27T12:03:14.603Z,10.18
2023-09-27T12:05:43.126Z,9.95
2023-09-27T12:08:11.470Z,11.45
2023-09-27T12:10:40.938Z,9.05
2023-09-27T12:13:08.932Z,10.18
2023-09-27T12:15:37.199Z,6.50
2023-09-27T12:18:05.930Z,11.80
2023-09-27T12:20:40.887Z,8.63
2023-09-27T12:23:11.593Z,8.45
2023-09-27T12:25:41.372Z,9.25
2023-09-27T12:28:09.575Z,7.82
2023-09-27T12:30:38.443Z,7.97
2023-09-27T12:33:06.744Z,11.70
2023-09-27T12:35:34.922Z,7.30
2023-09-27T12:38:05.483Z,7.80
2023-09-27T12:40:34.368Z,8.80
2023-09-27T12:43:04.158Z,11.93
2023-09-27T12:45:32.337Z,13.85
2023-09-27T12:48:01.020Z,6.55
2023-09-27T12:50:29.360Z,12.02
2023-09-27T12:52:57.734Z,9.85
2023-09-27T12:55:26.233Z,6.53
2023-09-27T12:57:54.399Z,10.70
2023-09-27T13:00:24.791Z,9.45
2023-09-27T13:02:53.631Z,9.18
2023-09-27T13:05:21.988Z,7.45
2023-09-27T13:07:52.703Z,7.50
2023-09-27T13:10:20.800Z,10.98
2023-09-27T13:12:48.956Z,11.23
2023-09-27T13:15:17.949Z,6.60
2023-09-27T13:17:47.760Z,11.95
2023-09-27T13:20:16.809Z,10.32
2023-09-27T13:22:45.006Z,11.35
2023-09-27T13:25:13.476Z,9.50
2023-09-27T13:27:42.001Z,10.60
2023-09-27T13:30:22.060Z,7.00
2023-09-27T13:32:59.845Z,8.43
2023-09-27T13:35:28.344Z,10.80
2023-09-27T13:37:56.914Z,11.13
2023-09-27T13:40:25.603Z,10.32
2023-09-27T13:42:53.665Z,10.88
2023-09-27T13:45:22.150Z,7.28
2023-09-27T13:47:50.253Z,10.57
2023-09-27T13:50:20.175Z,11.35
2023-09-27T13:52:48.545Z,9.75
2023-09-27T13:55:17.130Z,13.15
2023-09-27T13:57:45.244Z,10.70
2023-09-27T14:00:19.282Z,7.78
2023-09-27T14:02:47.746Z,10.68
2023-09-27T14:05:15.976Z,11.50
2023-09-27T14:07:45.607Z,18.10
2023-09-27T14:10:13.779Z,11.77
2023-09-27T14:12:41.975Z,8.27
2023-09-27T14:15:13.095Z,6.97
2023-09-27T14:17:42.979Z,13.55
2023-09-27T14:20:15.862Z,22.05
2023-09-27T14:22:46.901Z,10.85
2023-09-27T14:25:15.074Z,9.55
2023-09-27T14:27:43.376Z,10.43
2023-09-27T14:30:12.441Z,10.80
2023-09-27T14:32:43.541Z,14.32
2023-09-27T14:35:13.263Z,8.48
2023-09-27T14:37:42.513Z,13.13
2023-09-27T14:40:13.817Z,11.75
2023-09-27T14:42:44.169Z,9.82
2023-09-27T14:45:28.545Z,12.13
2023-09-27T14:48:00.438Z,9.18
2023-09-27T14:50:28.780Z,8.02
2023-09-27T14:52:56.867Z,8.15
2023-09-27T14:55:26.879Z,7.25
2023-09-27T14:57:55.333Z,6.60
2023-09-27T15:00:23.881Z,14.27
2023-09-27T15:02:52.083Z,11.18
2023-09-27T15:05:21.622Z,6.20
2023-09-27T15:07:50.432Z,7.15
2023-09-27T15:10:18.930Z,7.45
2023-09-27T15:12:48.611Z,7.65
2023-09-27T15:15:16.720Z,12.95
2023-09-27T15:17:46.052Z,8.10
2023-09-27T15:20:15.831Z,12.07
2023-09-27T15:22:44.132Z,13.00
2023-09-27T15:25:12.402Z,10.20
2023-09-27T15:27:40.654Z,7.65
2023-09-27T15:30:12.313Z,8.43
2023-09-27T15:32:40.837Z,9.55
2023-09-27T15:35:09.962Z,9.52
2023-09-27T15:37:38.946Z,8.57
2023-09-27T15:40:07.843Z,14.85
2023-09-27T15:42:35.985Z,7.75
2023-09-27T15:45:11.817Z,9.07
2023-09-27T15:47:40.371Z,6.85
2023-09-27T15:50:10.428Z,9.13
2023-09-27T15:52:38.910Z,9.45
2023-09-27T15:55:08.193Z,11.05
2023-09-27T15:57:36.576Z,8.43
2023-09-27T16:00:05.520Z,13.43
2023-09-27T16:02:35.080Z,6.68
2023-09-27T16:05:05.248Z,6.25
2023-09-27T16:07:33.712Z,10.32
2023-09-27T16:10:01.745Z,6.28
2023-09-27T16:12:29.771Z,11.15
2023-09-27T16:14:57.791Z,8.05
2023-09-27T16:17:25.991Z,8.32
2023-09-27T16:19:55.783Z,18.92
2023-09-27T16:22:24.209Z,8.10
2023-09-27T16:24:52.342Z,9.20
2023-09-27T16:27:20.685Z,8.57
2023-09-27T16:29:48.945Z,10.35
2023-09-27T16:32:17.576Z,10.50
2023-09-27T16:34:45.863Z,8.57
2023-09-27T16:37:16.172Z,8.13
2023-09-27T16:39:44.190Z,7.53
2023-09-27T16:42:12.209Z,10.05
2023-09-27T16:44:40.279Z,7.53
2023-09-27T16:47:08.432Z,14.82
2023-09-27T16:49:36.641Z,7.75
2023-09-27T16:52:05.001Z,13.23
2023-09-27T16:54:34.877Z,7.38
2023-09-27T16:57:03.786Z,10.57
2023-09-27T16:59:31.861Z,10.38
2023-09-27T17:02:00.051Z,9.70
2023-09-27T17:04:28.218Z,7.30
2023-09-27T17:06:56.445Z,7.78
2023-09-27T17:09:25.281Z,12.15
2023-09-27T17:11:54.853Z,11.35
2023-09-27T17:14:24.221Z,6.53
2023-09-27T17:16:52.339Z,7.25
2023-09-27T17:19:24.917Z,11.48
2023-09-27T17:21:54.163Z,6.50
2023-09-27T17:24:22.719Z,8.02
2023-09-27T17:26:50.973Z,7.72
2023-09-27T17:29:20.485Z,9.18
2023-09-27T17:31:49.958Z,8.18
2023-09-27T17:34:18.275Z,7.68
2023-09-27T17:36:46.728Z,11.55
2023-09-27T17:39:15.679Z,9.55
2023-09-27T17:41:44.640Z,13.98
2023-09-27T17:44:12.805Z,9.02
2023-09-27T17:46:42.265Z,10.48
2023-09-27T17:49:10.307Z,13.32
2023-09-27T17:51:39.379Z,7.82
2023-09-27T17:54:08.567Z,13.00
2023-09-27T17:56:36.745Z,8.93
2023-09-27T17:59:04.866Z,10.13
2023-09-27T18:01:33.025Z,13.23
2023-09-27T18:04:02.625Z,10.35
2023-09-27T18:06:30.824Z,13.23
2023-09-27T18:08:58.919Z,11.52
2023-09-27T18:11:26.924Z,12.68
2023-09-27T18:13:55.328Z,11.13
2023-09-27T18:16:23.779Z,12.43
2023-09-27T18:18:52.937Z,8.60
2023-09-27T18:21:24.543Z,10.73
2023-09-27T18:23:53.067Z,10.90
2023-09-27T18:26:21.594Z,9.68
2023-09-27T18:28:50.028Z,7.80
2023-09-27T18:31:19.555Z,8.52
2023-09-27T18:33:47.828Z,11.38
2023-09-27T18:36:16.807Z,9.40
2023-09-27T18:38:46.310Z,10.68
2023-09-27T18:41:14.364Z,9.07
2023-09-27T18:43:42.578Z,6.85
2023-09-27T18:46:10.653Z,6.60
2023-09-27T18:48:38.964Z,10.25
2023-09-27T18:51:06.864Z,9.82
2023-09-27T18:53:35.001Z,8.80
2023-09-27T18:56:04.525Z,9.23
2023-09-27T18:58:32.684Z,7.65
2023-09-27T19:01:03.141Z,14.40
2023-09-27T19:03:33.534Z,10.30
2023-09-27T19:06:01.525Z,8.02
2023-09-27T19:08:29.466Z,7.68
2023-09-27T19:10:57.700Z,8.40
2023-09-27T19:13:27.009Z,8.98
2023-09-27T19:15:55.007Z,7.90
2023-09-27T19:18:23.209Z,10.68
2023-09-27T19:20:53.182Z,8.93
2023-09-27T19:23:21.213Z,6.15
2023-09-27T19:25:49.186Z,11.00
2023-09-27T19:28:17.143Z,6.88
2023-09-27T19:30:46.477Z,6.20
2023-09-27T19:33:14.464Z,7.95
2023-09-27T19:35:42.346Z,9.70
2023-09-27T19:38:11.220Z,8.18
2023-09-27T19:40:39.464Z,11.27
2023-09-27T19:43:07.605Z,7.38
2023-09-27T19:45:35.623Z,11.27
2023-09-27T19:48:07.219Z,11.18
2023-09-27T19:50:36.196Z,10.15
2023-09-27T19:53:04.208Z,8.35
2023-09-27T19:55:32.367Z,9.45
2023-09-27T19:58:01.494Z,9.45
2023-09-27T20:00:29.474Z,9.15
2023-09-27T20:02:57.462Z,10.95
2023-09-27T20:05:28.206Z,10.60
2023-09-27T20:07:56.313Z,9.15
2023-09-27T20:10:26.016Z,7.97
2023-09-27T20:12:53.957Z,6.55
2023-09-27T20:15:23.070Z,8.30
2023-09-27T20:17:51.129Z,8.02
2023-09-27T20:20:19.103Z,8.07
2023-09-27T20:22:48.452Z,9.07
2023-09-27T20:25:17.090Z,8.52
2023-09-27T20:27:45.012Z,13.93
2023-09-27T20:30:14.049Z,10.75
2023-09-27T20:32:42.579Z,12.77
2023-09-27T20:35:11.643Z,8.93
2023-09-27T20:37:42.948Z,9.65
2023-09-27T20:40:13.177Z,11.60
2023-09-27T20:42:41.071Z,9.82
2023-09-27T20:45:10.439Z,9.85
2023-09-27T20:47:40.295Z,10.98
2023-09-27T20:50:12.096Z,10.98
2023-09-27T20:52:40.398Z,10.55
2023-09-27T20:55:11.069Z,10.43
2023-09-27T20:57:40.914Z,9.30
2023-09-27T21:00:11.414Z,8.55
2023-09-27T21:02:40.650Z,12.35
2023-09-27T21:05:09.489Z,8.27
2023-09-27T21:07:38.597Z,17.42
2023-09-27T21:10:08.403Z,11.95
2023-09-27T21:12:36.327Z,13.30
2023-09-27T21:15:06.970Z,12.43
2023-09-27T21:17:35.408Z,8.40
2023-09-27T21:20:04.316Z,10.65
2023-09-27T21:22:32.329Z,9.68
2023-09-27T21:25:00.414Z,11.93
2023-09-27T21:27:28.356Z,11.30
2023-09-27T21:29:56.397Z,12.67
2023-09-27T21:32:26.172Z,19.65
2023-09-27T21:34:54.176Z,16.00
2023-09-27T21:37:22.115Z,10.55
2023-09-27T21:39:50.448Z,12.27
2023-09-27T21:42:19.078Z,9.43
2023-09-27T21:44:47.098Z,14.93
2023-09-27T21:47:15.018Z,13.85
2023-09-27T21:49:44.414Z,15.13
2023-09-27T21:52:12.588Z,11.13
2023-09-27T21:54:40.495Z,12.10
2023-09-27T21:57:08.439Z,11.43
2023-09-27T21:59:36.367Z,7.38
2023-09-27T22:02:06.123Z,12.10
2023-09-27T22:04:34.197Z,6.63
2023-09-27T22:07:06.239Z,8.23
2023-09-27T22:09:34.588Z,6.10
2023-09-27T22:12:02.598Z,6.37
2023-09-27T22:14:30.489Z,9.37
2023-09-27T22:17:04.051Z,8.47
2023-09-27T22:19:31.998Z,7.37
2023-09-27T22:22:00.585Z,9.07
2023-09-27T22:24:31.824Z,7.73
2023-09-27T22:27:02.094Z,9.73
2023-09-27T22:29:32.807Z,6.50
2023-09-27T22:32:01.836Z,8.10
2023-09-27T22:34:38.427Z,7.60
2023-09-27T22:37:09.160Z,10.43
2023-09-27T22:39:43.713Z,8.57
2023-09-27T22:42:14.300Z,8.03
2023-09-27T22:44:43.595Z,6.83
2023-09-27T22:47:11.522Z,5.47
2023-09-27T22:49:41.511Z,11.27
2023-09-27T22:52:10.456Z,10.63
2023-09-27T22:54:40.937Z,9.50
2023-09-27T22:57:08.784Z,9.43
2023-09-27T22:59:39.210Z,11.07
2023-09-27T23:02:11.072Z,11.33
2023-09-27T23:04:39.333Z,8.20
2023-09-27T23:07:17.947Z,8.40
2023-09-27T23:09:48.550Z,8.53
2023-09-27T23:12:20.600Z,7.03
2023-09-27T23:15:06.866Z,9.40
2023-09-27T23:17:44.748Z,10.40
2023-09-27T23:20:16.349Z,5.83
2023-09-27T23:22:57.677Z,10.33
2023-09-27T23:25:45.026Z,8.23
2023-09-27T23:28:18.518Z,8.33
2023-09-27T23:30:51.221Z,7.33
2023-09-27T23:33:19.583Z,14.57
2023-09-27T23:35:46.813Z,6.97
2023-09-27T23:38:29.762Z,9.13
2023-09-27T23:41:00.606Z,10.03
2023-09-27T23:43:38.831Z,7.67
2023-09-27T23:46:08.392Z,8.30
2023-09-27T23:48:36.440Z,8.43
2023-09-27T23:51:05.855Z,8.83
2023-09-27T23:53:34.136Z,8.07
2023-09-27T23:56:03.422Z,8.57
2023-09-27T23:58:33.840Z,8.13
